createdAt,value
2023-01-28T00:07:41.242Z,-0.84
2023-01-28T00:17:46.868Z,-0.83
2023-01-28T00:27:51.153Z,-0.90
2023-01-28T00:37:56.599Z,-0.94
2023-01-28T00:48:02.076Z,-0.91
2023-01-28T00:58:07.580Z,-0.87
2023-01-28T01:08:13.340Z,-0.85
2023-01-28T01:18:18.916Z,-0.91
2023-01-28T01:28:24.888Z,-0.96
2023-01-28T01:38:30.503Z,-0.93
2023-01-28T01:48:36.876Z,-0.87
2023-01-28T01:58:43.696Z,-0.86
2023-01-28T02:08:49.242Z,-0.94
2023-01-28T02:18:54.598Z,-0.98
2023-01-28T02:28:59.383Z,-1.03
2023-01-28T02:39:08.574Z,-1.11
2023-01-28T02:49:16.872Z,-1.17
2023-01-28T02:59:34.494Z,-1.15
2023-01-28T03:09:39.301Z,-1.10
2023-01-28T03:20:02.960Z,-1.04
2023-01-28T03:30:30.636Z,-1.08
2023-01-28T03:40:36.194Z,-1.20
2023-01-28T03:50:41.973Z,-1.26
2023-01-28T04:00:48.113Z,-1.22
2023-01-28T04:10:53.842Z,-1.15
2023-01-28T04:20:59.249Z,-1.15
2023-01-28T04:31:04.821Z,-1.20
2023-01-28T04:41:10.516Z,-1.24
2023-01-28T04:51:16.098Z,-1.31
2023-01-28T05:01:22.083Z,-1.44
2023-01-28T05:11:27.773Z,-1.49
2023-01-28T05:21:33.307Z,-1.43
2023-01-28T05:31:38.618Z,-1.43
2023-01-28T05:41:44.115Z,-1.53
2023-01-28T05:51:50.070Z,-1.60
2023-01-28T06:01:55.482Z,-1.58
2023-01-28T06:12:00.841Z,-1.58
2023-01-28T06:22:06.538Z,-1.63
2023-01-28T06:32:12.166Z,-1.66
2023-01-28T06:42:17.539Z,-1.65
2023-01-28T06:52:23.025Z,-1.59
2023-01-28T07:02:28.528Z,-1.59
2023-01-28T07:12:34.339Z,-1.59
2023-01-28T07:22:42.151Z,-1.58
2023-01-28T07:32:48.150Z,-1.54
2023-01-28T07:42:52.949Z,-1.41
2023-01-28T07:52:58.798Z,-1.40
2023-01-28T08:03:05.927Z,-1.38
2023-01-28T08:13:10.230Z,-1.40
2023-01-28T08:23:14.440Z,-1.29
2023-01-28T08:33:20.531Z,-1.17
2023-01-28T08:43:25.101Z,-1.10
2023-01-28T08:53:30.568Z,-1.02
2023-01-28T09:03:36.410Z,-0.98
2023-01-28T09:13:42.647Z,-0.88
2023-01-28T09:23:48.330Z,-0.85
2023-01-28T09:44:05.796Z,-0.48
2023-01-28T09:54:14.043Z,-0.46
2023-01-28T10:04:23.427Z,-0.47
2023-01-28T10:24:39.082Z,-0.38
2023-01-28T10:34:46.135Z,-0.52
2023-01-28T10:44:54.472Z,-0.57
2023-01-28T10:55:02.474Z,-0.71
2023-01-28T11:05:08.457Z,-0.63
2023-01-28T11:15:20.740Z,-0.50
2023-01-28T11:25:27.811Z,-0.47
2023-01-28T11:35:35.023Z,-0.38
2023-01-28T11:45:45.335Z,-0.40
2023-01-28T11:55:54.777Z,-0.43
2023-01-28T12:06:12.800Z,-0.47
2023-01-28T12:16:38.633Z,-0.46
2023-01-28T12:26:44.467Z,-0.38
2023-01-28T12:36:51.416Z,-0.39
2023-01-28T12:46:59.880Z,-0.47
2023-01-28T12:57:10.120Z,-0.65
2023-01-28T13:07:23.195Z,-0.64
2023-01-28T13:17:31.893Z,-0.56
2023-01-28T13:27:39.150Z,-0.54
2023-01-28T13:37:48.684Z,-0.58
2023-01-28T13:48:01.530Z,-0.69
2023-01-28T13:58:38.100Z,-0.77
2023-01-28T14:08:59.414Z,-0.75
2023-01-28T14:19:11.231Z,-0.64
2023-01-28T14:29:19.162Z,-0.50
2023-01-28T14:39:28.110Z,-0.49
2023-01-28T14:49:39.433Z,-0.53
2023-01-28T14:59:47.377Z,-0.56
2023-01-28T15:10:01.743Z,-0.70
2023-01-28T15:20:11.318Z,-0.73
2023-01-28T15:30:24.827Z,-0.68
2023-01-28T15:40:32.958Z,-0.62
2023-01-28T15:50:41.610Z,-0.60
2023-01-28T16:00:49.499Z,-0.57
2023-01-28T16:10:57.972Z,-0.60
2023-01-28T16:21:10.001Z,-0.70
2023-01-28T16:31:18.201Z,-0.83
2023-01-28T16:41:23.334Z,-0.89
2023-01-28T16:51:30.908Z,-0.88
2023-01-28T17:01:38.089Z,-0.87
2023-01-28T17:11:45.746Z,-0.83
2023-01-28T17:21:53.087Z,-0.83
2023-01-28T17:31:59.549Z,-0.85
2023-01-28T17:42:06.042Z,-0.92
2023-01-28T17:52:13.303Z,-1.04
2023-01-28T18:02:20.431Z,-1.07
2023-01-28T18:12:27.736Z,-1.10
2023-01-28T18:22:35.280Z,-1.08
2023-01-28T18:32:42.345Z,-1.06
2023-01-28T18:42:48.493Z,-1.04
2023-01-28T18:52:56.618Z,-1.19
2023-01-28T19:03:02.521Z,-1.27
2023-01-28T19:13:09.994Z,-1.26
2023-01-28T19:23:17.559Z,-1.24
2023-01-28T19:33:24.581Z,-1.21
2023-01-28T19:43:31.664Z,-1.22
2023-01-28T19:53:38.436Z,-1.31
2023-01-28T20:03:45.955Z,-1.43
2023-01-28T20:13:56.880Z,-1.45
2023-01-28T20:24:06.725Z,-1.39
2023-01-28T20:34:12.992Z,-1.39
2023-01-28T20:44:20.836Z,-1.45
2023-01-28T20:54:28.664Z,-1.53
2023-01-28T21:04:36.246Z,-1.66
2023-01-28T21:14:43.292Z,-1.66
2023-01-28T21:24:51.487Z,-1.62
2023-01-28T21:34:58.685Z,-1.55
2023-01-28T21:45:06.605Z,-1.54
2023-01-28T21:55:12.718Z,-1.63
2023-01-28T22:05:17.631Z,-1.75
2023-01-28T22:15:23.630Z,-1.76
2023-01-28T22:25:30.641Z,-1.73
2023-01-28T22:35:37.874Z,-1.81
2023-01-28T22:45:45.086Z,-1.87
2023-01-28T22:55:51.919Z,-1.92
2023-01-28T23:05:59.026Z,-1.93
2023-01-28T23:16:24.403Z,-1.91
2023-01-28T23:26:32.702Z,-2.05
2023-01-28T23:36:40.041Z,-2.17
2023-01-28T23:46:47.232Z,-2.23
2023-01-28T23:56:55.057Z,-2.19
